Latest Weather Observations for North West 10 Beacon

IDQ60801

Issued at 9:13 pm EST Saturday 9 May 2026 (issued every 10 minutes, with the page automatically refreshed every 10 minutes)

About weather observations | Map of weather stations | Latest weather observations for QLD | Other Formats
Station Details ID: 200896 Name: NORTH WEST 10 BEACON Lat: -27.00 Lon: 153.24 Height: 7.0 m
Data from the previous 72 hours. | See also: Recent months for locations in Queensland
Date/Time
EST
Temp
°C
App
Temp
°C
Dew
Point
°C
Rel
Hum
%
Delta-T
°C
Wind Press
QNH
hPa
Press
MSL
hPa
Rain since
9am
mm
Dir  Spd
km/h
Gust
km/h
Spd
kts
Gust
kts
09/09:00pm - - - - - SE 15 17 8 9 - - -
09/08:30pm - - - - - SE 13 17 7 9 - - -
09/08:00pm - - - - - SE 13 17 7 9 - - -
09/07:30pm - - - - - SE 15 19 8 10 - - -
09/07:00pm - - - - - SE 17 20 9 11 - - -
09/06:30pm - - - - - SE 15 19 8 10 - - -
09/06:00pm - - - - - SE 17 19 9 10 - - -
09/05:30pm - - - - - SE 17 20 9 11 - - -
09/05:00pm - - - - - SE 17 20 9 11 - - -
09/04:30pm - - - - - SE 17 19 9 10 - - -
09/04:00pm - - - - - SSE 17 20 9 11 - - -
09/03:30pm - - - - - S 19 22 10 12 - - -
09/03:00pm - - - - - S 20 24 11 13 - - -
09/02:30pm - - - - - S 20 24 11 13 - - -
09/02:00pm - - - - - S 20 26 11 14 - - -
09/01:30pm - - - - - S 20 24 11 13 - - -
09/01:00pm - - - - - S 22 26 12 14 - - -
09/12:30pm - - - - - S 24 28 13 15 - - -
09/12:00pm - - - - - S 26 32 14 17 - - -
09/11:30am - - - - - S 26 32 14 17 - - -
09/11:00am - - - - - S 24 28 13 15 - - -
09/10:30am - - - - - S 22 28 12 15 - - -
09/10:00am - - - - - S 20 24 11 13 - - -
09/09:30am - - - - - S 22 26 12 14 - - -
09/09:00am - - - - - SSW 20 24 11 13 - - -
09/08:30am - - - - - SSW 22 24 12 13 - - -
09/08:00am - - - - - SSW 22 26 12 14 - - -
09/07:30am - - - - - SSW 20 24 11 13 - - -
09/07:00am - - - - - SSW 19 22 10 12 - - -
09/06:30am - - - - - SSW 20 26 11 14 - - -
09/06:00am - - - - - S 22 26 12 14 - - -
09/05:30am - - - - - S 20 28 11 15 - - -
09/05:00am - - - - - S 20 26 11 14 - - -
09/04:30am - - - - - S 19 22 10 12 - - -
09/04:00am - - - - - S 20 24 11 13 - - -
09/03:30am - - - - - S 22 26 12 14 - - -
09/03:00am - - - - - S 20 24 11 13 - - -
09/02:30am - - - - - S 19 24 10 13 - - -
09/02:00am - - - - - SSW 15 17 8 9 - - -
09/01:30am - - - - - SSW 13 17 7 9 - - -
09/01:00am - - - - - WSW 11 13 6 7 - - -
09/12:30am - - - - - WSW 15 19 8 10 - - -
09/12:00am - - - - - W 15 17 8 9 - - -
 
Date/Time
EST
Temp
°C
App
Temp
°C
Dew
Point
°C
Rel
Hum
%
Delta-T
°C
Wind Press
QNH
hPa
Press
MSL
hPa
Rain since
9am
mm
Dir  Spd
km/h
Gust
km/h
Spd
kts
Gust
kts
08/11:30pm - - - - - W 13 15 7 8 - - -
08/11:00pm - - - - - W 13 17 7 9 - - -
08/10:30pm - - - - - WSW 13 17 7 9 - - -
08/10:00pm - - - - - WNW 17 19 9 10 - - -
08/09:30pm - - - - - WNW 17 22 9 12 - - -
08/09:00pm - - - - - NW 17 19 9 10 - - -
08/08:30pm - - - - - NNW 11 15 6 8 - - -
08/08:00pm - - - - - N 13 15 7 8 - - -
08/07:30pm - - - - - N 13 17 7 9 - - -
08/07:00pm - - - - - N 11 13 6 7 - - -
08/06:30pm - - - - - NNE 9 13 5 7 - - -
08/06:00pm - - - - - NE 7 11 4 6 - - -
08/05:30pm - - - - - NNE 7 9 4 5 - - -
08/05:00pm - - - - - NE 7 9 4 5 - - -
08/04:30pm - - - - - NE 7 11 4 6 - - -
08/04:00pm - - - - - NNE 6 7 3 4 - - -
08/03:30pm - - - - - ENE 6 9 3 5 - - -
08/03:00pm - - - - - E 7 9 4 5 - - -
08/02:30pm - - - - - E 7 9 4 5 - - -
08/02:00pm - - - - - ESE 9 11 5 6 - - -
08/01:30pm - - - - - SE 6 9 3 5 - - -
08/01:00pm - - - - - SSE 7 11 4 6 - - -
08/12:30pm - - - - - SSE 9 15 5 8 - - -
08/12:00pm - - - - - S 13 17 7 9 - - -
08/11:30am - - - - - S 13 20 7 11 - - -
08/11:00am - - - - - S 15 22 8 12 - - -
08/10:30am - - - - - SSW 15 20 8 11 - - -
08/10:00am - - - - - SSW 17 20 9 11 - - -
08/09:30am - - - - - SSW 22 28 12 15 - - -
08/09:00am - - - - - SW 24 28 13 15 - - -
08/08:30am - - - - - SW 22 28 12 15 - - -
08/08:00am - - - - - SW 22 28 12 15 - - -
08/07:30am - - - - - SW 26 32 14 17 - - -
08/07:00am - - - - - SW 26 30 14 16 - - -
08/06:30am - - - - - SW 28 35 15 19 - - -
08/06:00am - - - - - WSW 26 30 14 16 - - -
08/05:30am - - - - - SW 28 32 15 17 - - -
08/05:00am - - - - - SW 28 33 15 18 - - -
08/04:30am - - - - - SW 26 32 14 17 - - -
08/04:00am - - - - - SW 28 32 15 17 - - -
08/03:30am - - - - - SW 26 32 14 17 - - -
08/03:00am - - - - - SW 26 32 14 17 - - -
08/02:30am - - - - - SW 26 35 14 19 - - -
08/02:00am - - - - - SW 26 32 14 17 - - -
08/01:30am - - - - - WSW 32 37 17 20 - - -
08/01:00am - - - - - WSW 24 33 13 18 - - -
08/12:30am - - - - - SW 28 33 15 18 - - -
08/12:00am - - - - - SW 26 32 14 17 - - -
 
Date/Time
EST
Temp
°C
App
Temp
°C
Dew
Point
°C
Rel
Hum
%
Delta-T
°C
Wind Press
QNH
hPa
Press
MSL
hPa
Rain since
9am
mm
Dir  Spd
km/h
Gust
km/h
Spd
kts
Gust
kts
07/11:30pm - - - - - SW 24 30 13 16 - - -
07/11:00pm - - - - - SW 26 32 14 17 - - -
07/10:30pm - - - - - WSW 26 32 14 17 - - -
07/10:00pm - - - - - SW 28 32 15 17 - - -
07/09:30pm - - - - - WSW 28 35 15 19 - - -
07/09:00pm - - - - - WSW 19 22 10 12 - - -
07/08:30pm - - - - - WSW 11 15 6 8 - - -
07/08:00pm - - - - - WSW 20 24 11 13 - - -
07/07:30pm - - - - - W 19 24 10 13 - - -
07/07:00pm - - - - - W 13 17 7 9 - - -
07/06:30pm - - - - - W 19 26 10 14 - - -
07/06:00pm - - - - - W 15 19 8 10 - - -
07/05:30pm - - - - - W 17 22 9 12 - - -
07/05:00pm - - - - - WSW 20 24 11 13 - - -
07/04:30pm - - - - - W 13 17 7 9 - - -
07/04:00pm - - - - - NNW 6 7 3 4 - - -
07/03:30pm - - - - - NW 7 7 4 4 - - -
07/03:00pm - - - - - NW 9 11 5 6 - - -
07/02:30pm - - - - - NW 7 9 4 5 - - -
07/02:00pm - - - - - W 15 19 8 10 - - -
07/01:30pm - - - - - W 13 17 7 9 - - -
07/01:00pm - - - - - W 15 19 8 10 - - -
07/12:30pm - - - - - WSW 17 20 9 11 - - -
07/12:00pm - - - - - WSW 15 20 8 11 - - -
07/11:30am - - - - - WSW 11 15 6 8 - - -
07/11:00am - - - - - SW 15 19 8 10 - - -
07/10:30am - - - - - SW 9 11 5 6 - - -
07/10:00am - - - - - SW 15 17 8 9 - - -
07/09:30am - - - - - SW 11 15 6 8 - - -
07/09:00am - - - - - SW 13 15 7 8 - - -
07/08:30am - - - - - SSW 13 15 7 8 - - -
07/08:00am - - - - - SSW 6 7 3 4 - - -
07/07:30am - - - - - SW 9 11 5 6 - - -
07/07:00am - - - - - SSW 13 15 7 8 - - -
07/06:30am - - - - - SSW 17 20 9 11 - - -
07/06:00am - - - - - SW 17 19 9 10 - - -
07/05:30am - - - - - SSW 19 20 10 11 - - -
07/05:00am - - - - - SSW 17 20 9 11 - - -
07/04:30am - - - - - SSW 13 17 7 9 - - -
07/04:00am - - - - - SSW 17 20 9 11 - - -
07/03:30am - - - - - SSW 13 15 7 8 - - -
07/03:00am - - - - - SSW 11 13 6 7 - - -
07/02:30am - - - - - SSW 15 17 8 9 - - -
07/02:00am - - - - - SSW 17 19 9 10 - - -
07/01:30am - - - - - SSW 17 20 9 11 - - -
07/01:00am - - - - - S 15 19 8 10 - - -
07/12:30am - - - - - SSW 19 20 10 11 - - -
07/12:00am - - - - - S 19 20 10 11 - - -
 
Date/Time
EST
Temp
°C
App
Temp
°C
Dew
Point
°C
Rel
Hum
%
Delta-T
°C
Wind Press
QNH
hPa
Press
MSL
hPa
Rain since
9am
mm
Dir  Spd
km/h
Gust
km/h
Spd
kts
Gust
kts
06/11:30pm - - - - - S 17 20 9 11 - - -
06/11:00pm - - - - - S 13 15 7 8 - - -
06/10:30pm - - - - - S 13 17 7 9 - - -
06/10:00pm - - - - - S 13 15 7 8 - - -
06/09:30pm - - - - - S 13 15 7 8 - - -

Other formats

Comma delimited format used in spreadsheet applications
http://www.bom.gov.au/fwo/IDQ60801/IDQ60801.99496.axf

JavaScript Object Notation format (JSON) in row-major order
http://www.bom.gov.au/fwo/IDQ60801/IDQ60801.99496.json

Data quality

Most of these data are generated automatically and are frequently updated. Quality checks on data are not normally performed. It is possible for incorrect values to appear. Refer to information at About Latest Weather Observations and please check the disclaimer before using these data.